sensor_id;sensor_type;location;lat;lon;timestamp;pressure;altitude;pressure_sealevel;temperature;humidity
2761;BME280;15420;48.636;9.798;2023-02-12T00:01:15;98574.88;;;5.34;99.26
2761;BME280;15420;48.636;9.798;2023-02-12T00:03:42;98569.66;;;5.33;99.80
2761;BME280;15420;48.636;9.798;2023-02-12T00:06:09;98579.09;;;5.34;99.66
2761;BME280;15420;48.636;9.798;2023-02-12T00:08:37;98573.97;;;5.34;99.31
2761;BME280;15420;48.636;9.798;2023-02-12T00:11:29;98569.88;;;5.36;98.76
2761;BME280;15420;48.636;9.798;2023-02-12T00:13:57;98573.97;;;5.34;99.53
2761;BME280;15420;48.636;9.798;2023-02-12T00:16:25;98575.75;;;5.35;99.18
2761;BME280;15420;48.636;9.798;2023-02-12T00:18:54;98577.31;;;5.33;98.86
2761;BME280;15420;48.636;9.798;2023-02-12T00:21:21;98574.75;;;5.33;99.24
2761;BME280;15420;48.636;9.798;2023-02-12T00:23:48;98578.97;;;5.32;98.87
2761;BME280;15420;48.636;9.798;2023-02-12T00:26:16;98572.22;;;5.33;99.30
2761;BME280;15420;48.636;9.798;2023-02-12T00:28:43;98577.31;;;5.33;99.45
2761;BME280;15420;48.636;9.798;2023-02-12T00:31:19;98574.88;;;5.34;99.15
2761;BME280;15420;48.636;9.798;2023-02-12T00:33:46;98575.66;;;5.33;99.88
2761;BME280;15420;48.636;9.798;2023-02-12T00:36:19;98575.75;;;5.35;99.98
2761;BME280;15420;48.636;9.798;2023-02-12T00:38:46;98567.97;;;5.33;99.53
2761;BME280;15420;48.636;9.798;2023-02-12T00:41:12;98570.53;;;5.33;100.00
2761;BME280;15420;48.636;9.798;2023-02-12T00:43:38;98569.66;;;5.33;99.62
2761;BME280;15420;48.636;9.798;2023-02-12T00:46:05;98572.31;;;5.34;99.74
2761;BME280;15420;48.636;9.798;2023-02-12T00:48:34;98576.53;;;5.34;99.88
2761;BME280;15420;48.636;9.798;2023-02-12T00:51:03;98577.31;;;5.33;99.88
2761;BME280;15420;48.636;9.798;2023-02-12T00:53:32;98580.75;;;5.33;99.61
2761;BME280;15420;48.636;9.798;2023-02-12T00:55:59;98585.88;;;5.33;100.00
2761;BME280;15420;48.636;9.798;2023-02-12T00:58:25;98585.75;;;5.32;99.56
2761;BME280;15420;48.636;9.798;2023-02-12T01:00:53;98586.75;;;5.34;100.00
2761;BME280;15420;48.636;9.798;2023-02-12T01:03:19;98583.31;;;5.33;100.00
2761;BME280;15420;48.636;9.798;2023-02-12T01:05:48;98588.44;;;5.33;100.00
2761;BME280;15420;48.636;9.798;2023-02-12T01:08:15;98588.44;;;5.33;99.92
2761;BME280;15420;48.636;9.798;2023-02-12T01:10:42;98592.66;;;5.33;100.00
2761;BME280;15420;48.636;9.798;2023-02-12T01:13:12;98586.66;;;5.32;99.80
2761;BME280;15420;48.636;9.798;2023-02-12T01:15:44;98584.97;;;5.33;100.00
2761;BME280;15420;48.636;9.798;2023-02-12T01:18:12;98584.88;;;5.31;99.95
2761;BME280;15420;48.636;9.798;2023-02-12T01:20:41;98590.00;;;5.31;99.94
2761;BME280;15420;48.636;9.798;2023-02-12T01:23:09;98606.22;;;5.32;100.00
2761;BME280;15420;48.636;9.798;2023-02-12T01:25:38;98592.66;;;5.33;100.00
2761;BME280;15420;48.636;9.798;2023-02-12T01:28:04;98584.88;;;5.31;100.00
2761;BME280;15420;48.636;9.798;2023-02-12T01:30:33;98591.75;;;5.32;100.00
2761;BME280;15420;48.636;9.798;2023-02-12T01:32:59;98589.22;;;5.32;100.00
2761;BME280;15420;48.636;9.798;2023-02-12T01:35:27;98595.09;;;5.31;100.00
2761;BME280;15420;48.636;9.798;2023-02-12T01:37:53;98594.31;;;5.32;100.00
2761;BME280;15420;48.636;9.798;2023-02-12T01:40:20;98591.75;;;5.32;100.00
2761;BME280;15420;48.636;9.798;2023-02-12T01:42:46;98590.97;;;5.33;100.00
2761;BME280;15420;48.636;9.798;2023-02-12T01:47:42;98583.31;;;5.33;100.00
2761;BME280;15420;48.636;9.798;2023-02-12T01:50:12;98579.09;;;5.34;100.00
2761;BME280;15420;48.636;9.798;2023-02-12T01:52:44;98574.88;;;5.34;100.00
2761;BME280;15420;48.636;9.798;2023-02-12T01:55:15;98569.75;;;5.34;100.00
2761;BME280;15420;48.636;9.798;2023-02-12T01:57:45;98574.75;;;5.33;100.00
2761;BME280;15420;48.636;9.798;2023-02-12T02:00:19;98574.88;;;5.34;100.00
2761;BME280;15420;48.636;9.798;2023-02-12T02:02:50;98572.22;;;5.33;100.00
2761;BME280;15420;48.636;9.798;2023-02-12T02:05:42;98567.97;;;5.33;100.00
2761;BME280;15420;48.636;9.798;2023-02-12T02:08:10;98571.22;;;5.31;100.00
2761;BME280;15420;48.636;9.798;2023-02-12T02:10:37;98564.44;;;5.31;100.00
2761;BME280;15420;48.636;9.798;2023-02-12T02:13:04;98566.88;;;5.30;100.00
2761;BME280;15420;48.636;9.798;2023-02-12T02:15:51;98569.53;;;5.31;100.00
2761;BME280;15420;48.636;9.798;2023-02-12T02:18:42;98563.66;;;5.32;100.00
2761;BME280;15420;48.636;9.798;2023-02-12T02:21:25;98563.53;;;5.31;100.00
2761;BME280;15420;48.636;9.798;2023-02-12T02:32:11;98555.78;;;5.29;100.00
2761;BME280;15420;48.636;9.798;2023-02-12T02:34:41;98555.66;;;5.28;100.00
2761;BME280;15420;48.636;9.798;2023-02-12T02:39:54;98565.88;;;5.28;100.00
2761;BME280;15420;48.636;9.798;2023-02-12T02:45:08;98563.44;;;5.29;100.00
2761;BME280;15420;48.636;9.798;2023-02-12T02:47:48;98559.09;;;5.28;100.00
2761;BME280;15420;48.636;9.798;2023-02-12T02:50:21;98556.56;;;5.28;100.00
2761;BME280;15420;48.636;9.798;2023-02-12T02:52:54;98551.44;;;5.28;100.00
2761;BME280;15420;48.636;9.798;2023-02-12T02:55:28;98548.00;;;5.28;100.00
2761;BME280;15420;48.636;9.798;2023-02-12T02:58:06;98541.22;;;5.28;100.00
2761;BME280;15420;48.636;9.798;2023-02-12T03:00:52;98548.09;;;5.29;100.00
2761;BME280;15420;48.636;9.798;2023-02-12T03:06:03;98554.00;;;5.28;100.00
2761;BME280;15420;48.636;9.798;2023-02-12T03:08:39;98554.78;;;5.27;100.00
2761;BME280;15420;48.636;9.798;2023-02-12T03:11:17;98559.88;;;5.27;100.00
2761;BME280;15420;48.636;9.798;2023-02-12T03:13:48;98559.09;;;5.28;100.00
2761;BME280;15420;48.636;9.798;2023-02-12T03:16:28;98555.66;;;5.28;100.00
2761;BME280;15420;48.636;9.798;2023-02-12T03:19:04;98558.22;;;5.28;100.00
2761;BME280;15420;48.636;9.798;2023-02-12T03:24:33;98570.09;;;5.27;100.00
2761;BME280;15420;48.636;9.798;2023-02-12T03:27:18;98566.66;;;5.26;100.00
2761;BME280;15420;48.636;9.798;2023-02-12T03:29:46;98560.56;;;5.24;100.00
2761;BME280;15420;48.636;9.798;2023-02-12T03:34:54;98565.78;;;5.26;100.00
2761;BME280;15420;48.636;9.798;2023-02-12T03:37:37;98561.66;;;5.28;100.00
2761;BME280;15420;48.636;9.798;2023-02-12T03:40:18;98573.44;;;5.26;100.00
2761;BME280;15420;48.636;9.798;2023-02-12T03:46:04;98566.00;;;5.29;100.00
2761;BME280;15420;48.636;9.798;2023-02-12T03:49:15;98564.22;;;5.28;100.00
2761;BME280;15420;48.636;9.798;2023-02-12T03:51:45;98569.13;;;5.25;100.00
2761;BME280;15420;48.636;9.798;2023-02-12T03:54:19;98570.00;;;5.25;100.00
2761;BME280;15420;48.636;9.798;2023-02-12T03:56:56;98568.44;;;5.28;100.00
2761;BME280;15420;48.636;9.798;2023-02-12T03:59:28;98568.34;;;5.26;100.00
2761;BME280;15420;48.636;9.798;2023-02-12T04:01:57;98570.00;;;5.25;100.00
2761;BME280;15420;48.636;9.798;2023-02-12T04:04:25;98575.88;;;5.24;100.00
2761;BME280;15420;48.636;9.798;2023-02-12T04:06:54;98577.56;;;5.24;100.00
2761;BME280;15420;48.636;9.798;2023-02-12T04:09:21;98578.34;;;5.23;100.00
2761;BME280;15420;48.636;9.798;2023-02-12T04:12:01;98581.78;;;5.23;100.00
2761;BME280;15420;48.636;9.798;2023-02-12T04:36:27;98594.94;;;5.16;100.00
2761;BME280;15420;48.636;9.798;2023-02-12T04:39:02;98599.25;;;5.17;100.00
2761;BME280;15420;48.636;9.798;2023-02-12T04:41:31;98594.94;;;5.16;100.00
2761;BME280;15420;48.636;9.798;2023-02-12T04:43:57;98613.81;;;5.18;100.00
2761;BME280;15420;48.636;9.798;2023-02-12T04:46:26;98605.25;;;5.18;100.00
2761;BME280;15420;48.636;9.798;2023-02-12T04:48:56;98602.59;;;5.16;100.00
2761;BME280;15420;48.636;9.798;2023-02-12T04:51:23;98605.16;;;5.16;100.00
2761;BME280;15420;48.636;9.798;2023-02-12T04:53:53;98601.72;;;5.16;100.00
2761;BME280;15420;48.636;9.798;2023-02-12T04:56:19;98604.38;;;5.17;100.00
2761;BME280;15420;48.636;9.798;2023-02-12T04:58:47;98602.72;;;5.18;100.00
2761;BME280;15420;48.636;9.798;2023-02-12T05:01:14;98602.59;;;5.16;100.00
2761;BME280;15420;48.636;9.798;2023-02-12T05:03:42;98597.59;;;5.18;100.00
2761;BME280;15420;48.636;9.798;2023-02-12T05:06:11;98596.72;;;5.17;100.00
2761;BME280;15420;48.636;9.798;2023-02-12T05:08:42;98599.38;;;5.19;100.00
2761;BME280;15420;48.636;9.798;2023-02-12T05:11:09;98600.16;;;5.18;100.00
2761;BME280;15420;48.636;9.798;2023-02-12T05:13:35;98593.38;;;5.18;100.00
2761;BME280;15420;48.636;9.798;2023-02-12T05:16:07;98591.72;;;5.19;100.00
2761;BME280;15420;48.636;9.798;2023-02-12T05:18:34;98595.94;;;5.18;100.00
2761;BME280;15420;48.636;9.798;2023-02-12T05:21:03;98592.38;;;5.16;100.00
2761;BME280;15420;48.636;9.798;2023-02-12T05:23:34;98590.72;;;5.17;100.00
2761;BME280;15420;48.636;9.798;2023-02-12T05:26:07;98593.28;;;5.17;100.00
2761;BME280;15420;48.636;9.798;2023-02-12T05:28:35;98594.94;;;5.16;100.00
2761;BME280;15420;48.636;9.798;2023-02-12T05:31:03;98589.81;;;5.16;100.00
2761;BME280;15420;48.636;9.798;2023-02-12T05:33:31;98590.59;;;5.15;100.00
2761;BME280;15420;48.636;9.798;2023-02-12T05:36:10;98591.59;;;5.17;100.00
2761;BME280;15420;48.636;9.798;2023-02-12T05:38:39;98597.50;;;5.16;100.00
2761;BME280;15420;48.636;9.798;2023-02-12T05:41:14;98590.59;;;5.15;100.00
2761;BME280;15420;48.636;9.798;2023-02-12T05:43:41;98601.59;;;5.14;100.00
2761;BME280;15420;48.636;9.798;2023-02-12T05:46:08;98592.94;;;5.12;100.00
2761;BME280;15420;48.636;9.798;2023-02-12T05:48:36;98598.94;;;5.13;100.00
2761;BME280;15420;48.636;9.798;2023-02-12T05:51:10;98605.81;;;5.14;100.00
2761;BME280;15420;48.636;9.798;2023-02-12T05:53:40;98610.81;;;5.12;100.00
2761;BME280;15420;48.636;9.798;2023-02-12T05:56:14;98598.94;;;5.13;100.00
2761;BME280;15420;48.636;9.798;2023-02-12T05:58:51;98604.81;;;5.12;100.00
2761;BME280;15420;48.636;9.798;2023-02-12T06:01:27;98598.81;;;5.11;100.00
2761;BME280;15420;48.636;9.798;2023-02-12T06:03:53;98613.28;;;5.11;100.00
2761;BME280;15420;48.636;9.798;2023-02-12T06:06:20;98610.72;;;5.11;100.00
2761;BME280;15420;48.636;9.798;2023-02-12T06:08:53;98613.38;;;5.12;100.00
2761;BME280;15420;48.636;9.798;2023-02-12T06:11:19;98607.38;;;5.12;100.00
2761;BME280;15420;48.636;9.798;2023-02-12T06:13:48;98606.50;;;5.11;100.00
2761;BME280;15420;48.636;9.798;2023-02-12T06:16:21;98607.38;;;5.12;100.00
2761;BME280;15420;48.636;9.798;2023-02-12T06:18:50;98609.06;;;5.11;100.00
2761;BME280;15420;48.636;9.798;2023-02-12T06:21:20;98608.16;;;5.11;100.00
2761;BME280;15420;48.636;9.798;2023-02-12T06:23:49;98609.06;;;5.11;100.00
2761;BME280;15420;48.636;9.798;2023-02-12T06:26:16;98608.16;;;5.11;100.00
2761;BME280;15420;48.636;9.798;2023-02-12T06:28:43;98610.81;;;5.12;100.00
2761;BME280;15420;48.636;9.798;2023-02-12T06:31:29;98617.81;;;5.15;100.00
2761;BME280;15420;48.636;9.798;2023-02-12T06:33:57;98610.81;;;5.12;100.00
2761;BME280;15420;48.636;9.798;2023-02-12T06:36:24;98616.94;;;5.14;100.00
2761;BME280;15420;48.636;9.798;2023-02-12T06:38:52;98622.03;;;5.14;100.00
2761;BME280;15420;48.636;9.798;2023-02-12T06:41:22;98620.38;;;5.15;100.00
2761;BME280;15420;48.636;9.798;2023-02-12T06:43:48;98615.25;;;5.15;100.00
2761;BME280;15420;48.636;9.798;2023-02-12T06:46:17;98614.59;;;5.17;100.00
2761;BME280;15420;48.636;9.798;2023-02-12T06:48:46;98619.72;;;5.17;100.00
2761;BME280;15420;48.636;9.798;2023-02-12T06:51:15;98616.38;;;5.18;100.00
2761;BME280;15420;48.636;9.798;2023-02-12T06:53:44;98618.03;;;5.18;100.00
2761;BME280;15420;48.636;9.798;2023-02-12T06:56:11;98624.16;;;5.20;100.00
2761;BME280;15420;48.636;9.798;2023-02-12T06:58:43;98625.00;;;5.20;100.00
2761;BME280;15420;48.636;9.798;2023-02-12T07:03:39;98627.78;;;5.23;100.00
2761;BME280;15420;48.636;9.798;2023-02-12T07:06:05;98636.44;;;5.25;100.00
2761;BME280;15420;48.636;9.798;2023-02-12T07:08:32;98633.88;;;5.25;100.00
2761;BME280;15420;48.636;9.798;2023-02-12T07:11:00;98630.53;;;5.26;100.00
2761;BME280;15420;48.636;9.798;2023-02-12T07:13:26;98637.44;;;5.28;100.00
2761;BME280;15420;48.636;9.798;2023-02-12T07:15:55;98638.44;;;5.30;100.00
2761;BME280;15420;48.636;9.798;2023-02-12T07:18:21;98642.75;;;5.31;100.00
2761;BME280;15420;48.636;9.798;2023-02-12T07:20:47;98632.66;;;5.32;100.00
2761;BME280;15420;48.636;9.798;2023-02-12T07:23:18;98630.97;;;5.33;100.00
2761;BME280;15420;48.636;9.798;2023-02-12T07:26:01;98638.09;;;5.37;100.00
2761;BME280;15420;48.636;9.798;2023-02-12T07:28:27;98644.88;;;5.36;100.00
2761;BME280;15420;48.636;9.798;2023-02-12T07:30:54;98643.19;;;5.37;100.00
2761;BME280;15420;48.636;9.798;2023-02-12T07:33:20;98638.19;;;5.38;100.00
2761;BME280;15420;48.636;9.798;2023-02-12T07:35:49;98637.41;;;5.39;100.00
2761;BME280;15420;48.636;9.798;2023-02-12T07:38:15;98638.41;;;5.41;100.00
2761;BME280;15420;48.636;9.798;2023-02-12T07:40:41;98635.19;;;5.44;100.00
2761;BME280;15420;48.636;9.798;2023-02-12T07:43:07;98636.97;;;5.45;100.00
2761;BME280;15420;48.636;9.798;2023-02-12T07:45:35;98639.63;;;5.46;100.00
2761;BME280;15420;48.636;9.798;2023-02-12T07:48:02;98640.72;;;5.50;100.00
2761;BME280;15420;48.636;9.798;2023-02-12T07:50:28;98649.41;;;5.52;100.00
2761;BME280;15420;48.636;9.798;2023-02-12T07:52:56;98638.50;;;5.54;100.00
2761;BME280;15420;48.636;9.798;2023-02-12T07:55:22;98639.38;;;5.55;100.00
2761;BME280;15420;48.636;9.798;2023-02-12T07:57:48;98637.94;;;5.58;100.00
2761;BME280;15420;48.636;9.798;2023-02-12T08:00:17;98628.69;;;5.61;100.00
2761;BME280;15420;48.636;9.798;2023-02-12T08:02:49;98628.03;;;5.63;100.00
2761;BME280;15420;48.636;9.798;2023-02-12T08:05:17;98628.25;;;5.66;100.00
2761;BME280;15420;48.636;9.798;2023-02-12T08:07:46;98627.69;;;5.70;100.00
2761;BME280;15420;48.636;9.798;2023-02-12T08:10:12;98628.56;;;5.71;100.00
2761;BME280;15420;48.636;9.798;2023-02-12T08:12:38;98632.22;;;5.74;100.00
2761;BME280;15420;48.636;9.798;2023-02-12T08:15:07;98632.44;;;5.77;100.00
2761;BME280;15420;48.636;9.798;2023-02-12T08:17:34;98635.97;;;5.79;100.00
2761;BME280;15420;48.636;9.798;2023-02-12T08:20:02;98632.53;;;6.15;100.00
2761;BME280;15420;48.636;9.798;2023-02-12T08:22:29;98629.59;;;5.98;100.00
2761;BME280;15420;48.636;9.798;2023-02-12T08:24:55;98631.19;;;5.96;100.00
2761;BME280;15420;48.636;9.798;2023-02-12T08:27:21;98631.38;;;5.99;100.00
2761;BME280;15420;48.636;9.798;2023-02-12T08:29:49;98629.81;;;6.01;100.00
2761;BME280;15420;48.636;9.798;2023-02-12T08:32:18;98628.34;;;6.04;100.00
2761;BME280;15420;48.636;9.798;2023-02-12T08:34:44;98628.47;;;6.06;100.00
2761;BME280;15420;48.636;9.798;2023-02-12T08:37:12;98626.22;;;6.10;100.00
2761;BME280;15420;48.636;9.798;2023-02-12T08:39:39;98635.00;;;6.14;100.00
2761;BME280;15420;48.636;9.798;2023-02-12T08:42:05;98631.06;;;6.19;100.00
2761;BME280;15420;48.636;9.798;2023-02-12T08:44:32;98633.06;;;6.23;100.00
2761;BME280;15420;48.636;9.798;2023-02-12T08:47:00;98632.44;;;6.27;100.00
2761;BME280;15420;48.636;9.798;2023-02-12T08:49:28;98626.75;;;6.31;100.00
2761;BME280;15420;48.636;9.798;2023-02-12T08:51:58;98626.28;;;6.37;100.00
2761;BME280;15420;48.636;9.798;2023-02-12T08:54:30;98634.25;;;6.41;100.00
2761;BME280;15420;48.636;9.798;2023-02-12T08:56:59;98627.78;;;6.46;100.00
2761;BME280;15420;48.636;9.798;2023-02-12T08:59:25;98628.06;;;6.51;100.00
2761;BME280;15420;48.636;9.798;2023-02-12T09:01:54;98622.47;;;6.56;100.00
2761;BME280;15420;48.636;9.798;2023-02-12T09:04:23;98631.34;;;6.62;100.00
2761;BME280;15420;48.636;9.798;2023-02-12T09:06:53;98621.31;;;6.65;100.00
2761;BME280;15420;48.636;9.798;2023-02-12T09:09:22;98629.28;;;6.69;100.00
2761;BME280;15420;48.636;9.798;2023-02-12T09:11:51;98632.25;;;6.75;100.00
2761;BME280;15420;48.636;9.798;2023-02-12T09:14:17;98630.78;;;6.79;100.00
2761;BME280;15420;48.636;9.798;2023-02-12T09:16:48;98628.53;;;6.83;100.00
2761;BME280;15420;48.636;9.798;2023-02-12T09:19:15;98632.28;;;6.88;100.00
2761;BME280;15420;48.636;9.798;2023-02-12T09:21:41;98633.34;;;6.92;100.00
2761;BME280;15420;48.636;9.798;2023-02-12T09:24:08;98624.28;;;6.97;100.00
2761;BME280;15420;48.636;9.798;2023-02-12T09:26:34;98631.28;;;7.00;100.00
2761;BME280;15420;48.636;9.798;2023-02-12T09:29:02;98627.34;;;7.05;100.00
2761;BME280;15420;48.636;9.798;2023-02-12T09:31:30;98635.22;;;7.08;100.00
2761;BME280;15420;48.636;9.798;2023-02-12T09:34:05;98631.38;;;7.14;100.00
2761;BME280;15420;48.636;9.798;2023-02-12T09:36:34;98639.97;;;7.15;100.00
2761;BME280;15420;48.636;9.798;2023-02-12T09:39:03;98636.72;;;7.17;100.00
2761;BME280;15420;48.636;9.798;2023-02-12T09:50:10;98640.81;;;7.29;100.00
2761;BME280;15420;48.636;9.798;2023-02-12T09:52:39;98642.69;;;7.31;100.00
2761;BME280;15420;48.636;9.798;2023-02-12T09:55:08;98636.75;;;7.32;100.00
2761;BME280;15420;48.636;9.798;2023-02-12T09:57:39;98646.44;;;7.36;100.00
2761;BME280;15420;48.636;9.798;2023-02-12T10:00:12;98650.88;;;7.39;100.00
2761;BME280;15420;48.636;9.798;2023-02-12T10:02:40;98648.50;;;7.42;100.00
2761;BME280;15420;48.636;9.798;2023-02-12T10:13:30;98644.03;;;7.52;100.00
2761;BME280;15420;48.636;9.798;2023-02-12T10:26:56;98653.47;;;7.67;100.00
2761;BME280;15420;48.636;9.798;2023-02-12T10:29:33;98650.22;;;7.69;100.00
2761;BME280;15420;48.636;9.798;2023-02-12T10:34:39;98648.03;;;7.75;100.00
2761;BME280;15420;48.636;9.798;2023-02-12T10:39:50;98648.41;;;7.81;100.00
2761;BME280;15420;48.636;9.798;2023-02-12T10:42:42;98646.13;;;7.86;100.00
2761;BME280;15420;48.636;9.798;2023-02-12T10:45:36;98635.19;;;7.88;100.00
2761;BME280;15420;48.636;9.798;2023-02-12T10:48:13;98640.31;;;7.88;100.00
2761;BME280;15420;48.636;9.798;2023-02-12T10:53:43;98639.59;;;7.91;100.00
2761;BME280;15420;48.636;9.798;2023-02-12T10:56:17;98632.88;;;7.93;100.00
2761;BME280;15420;48.636;9.798;2023-02-12T10:58:53;98633.88;;;7.95;100.00
2761;BME280;15420;48.636;9.798;2023-02-12T11:03:56;98628.81;;;7.97;100.00
2761;BME280;15420;48.636;9.798;2023-02-12T11:06:34;98630.00;;;8.02;100.00
2761;BME280;15420;48.636;9.798;2023-02-12T11:09:00;98626.53;;;8.01;100.00
2761;BME280;15420;48.636;9.798;2023-02-12T11:11:30;98623.38;;;8.05;100.00
2761;BME280;15420;48.636;9.798;2023-02-12T11:14:13;98626.03;;;8.07;100.00
2761;BME280;15420;48.636;9.798;2023-02-12T11:16:53;98610.72;;;8.08;100.00
2761;BME280;15420;48.636;9.798;2023-02-12T11:19:26;98614.16;;;8.09;100.00
2761;BME280;15420;48.636;9.798;2023-02-12T11:22:09;98617.09;;;8.15;100.00
2761;BME280;15420;48.636;9.798;2023-02-12T11:24:41;98617.00;;;8.13;100.00
2761;BME280;15420;48.636;9.798;2023-02-12T11:30:03;98608.50;;;8.14;100.00
2761;BME280;15420;48.636;9.798;2023-02-12T11:32:31;98612.06;;;8.16;100.00
2761;BME280;15420;48.636;9.798;2023-02-12T11:35:17;98609.84;;;8.23;100.00
2761;BME280;15420;48.636;9.798;2023-02-12T11:37:53;98608.88;;;8.20;100.00
2761;BME280;15420;48.636;9.798;2023-02-12T11:43:02;98614.38;;;8.27;100.00
2761;BME280;15420;48.636;9.798;2023-02-12T11:45:44;98610.03;;;8.26;100.00
2761;BME280;15420;48.636;9.798;2023-02-12T11:48:22;98616.16;;;8.28;100.00
2761;BME280;15420;48.636;9.798;2023-02-12T11:50:55;98616.25;;;8.29;100.00
2761;BME280;15420;48.636;9.798;2023-02-12T11:53:29;98616.25;;;8.29;100.00
2761;BME280;15420;48.636;9.798;2023-02-12T11:56:03;98616.41;;;8.32;100.00
2761;BME280;15420;48.636;9.798;2023-02-12T11:58:30;98613.06;;;8.33;100.00
2761;BME280;15420;48.636;9.798;2023-02-12T12:01:31;98610.53;;;8.63;98.54
2761;BME280;15420;48.636;9.798;2023-02-12T12:04:12;98612.91;;;8.45;99.19
2761;BME280;15420;48.636;9.798;2023-02-12T12:06:52;98613.59;;;8.42;100.00
2761;BME280;15420;48.636;9.798;2023-02-12T12:09:53;98608.47;;;8.42;99.91
2761;BME280;15420;48.636;9.798;2023-02-12T12:17:50;98612.19;;;8.47;99.60
2761;BME280;15420;48.636;9.798;2023-02-12T12:20:51;98612.91;;;8.45;99.00
2761;BME280;15420;48.636;9.798;2023-02-12T12:24:03;98603.69;;;8.48;99.87
2761;BME280;15420;48.636;9.798;2023-02-12T12:26:33;98606.88;;;8.44;99.50
2761;BME280;15420;48.636;9.798;2023-02-12T12:29:12;98610.69;;;8.51;99.02
2761;BME280;15420;48.636;9.798;2023-02-12T12:31:58;98608.22;;;8.52;99.93
2761;BME280;15420;48.636;9.798;2023-02-12T12:34:27;98609.00;;;8.51;100.00
2761;BME280;15420;48.636;9.798;2023-02-12T13:08:16;98575.63;;;8.66;98.28
2761;BME280;15420;48.636;9.798;2023-02-12T13:13:41;98582.69;;;8.70;99.37
2761;BME280;15420;48.636;9.798;2023-02-12T13:19:17;98580.31;;;8.73;99.18
2761;BME280;15420;48.636;9.798;2023-02-12T13:27:13;98577.81;;;8.75;98.19
2761;BME280;15420;48.636;9.798;2023-02-12T13:29:43;98572.78;;;8.76;98.33
2761;BME280;15420;48.636;9.798;2023-02-12T13:32:23;98574.72;;;8.80;98.59
2761;BME280;15420;48.636;9.798;2023-02-12T13:34:53;98570.47;;;8.81;98.38
2761;BME280;15420;48.636;9.798;2023-02-12T13:40:07;98576.56;;;8.83;98.55
2761;BME280;15420;48.636;9.798;2023-02-12T13:50:50;98568.25;;;8.87;97.41
2761;BME280;15420;48.636;9.798;2023-02-12T13:56:41;98562.28;;;8.88;97.60
2761;BME280;15420;48.636;9.798;2023-02-12T14:01:55;98552.97;;;8.90;97.97
2761;BME280;15420;48.636;9.798;2023-02-12T14:07:05;98554.22;;;8.97;97.21
2761;BME280;15420;48.636;9.798;2023-02-12T14:12:16;98542.16;;;8.96;97.71
2761;BME280;15420;48.636;9.798;2023-02-12T14:18:11;98542.41;;;9.00;97.22
2761;BME280;15420;48.636;9.798;2023-02-12T14:23:45;98536.31;;;8.98;96.83
2761;BME280;15420;48.636;9.798;2023-02-12T14:26:20;98538.06;;;8.99;96.43
2761;BME280;15420;48.636;9.798;2023-02-12T14:29:05;98539.91;;;9.33;95.85
2761;BME280;15420;48.636;9.798;2023-02-12T14:31:42;98537.69;;;9.08;96.38
2761;BME280;15420;48.636;9.798;2023-02-12T14:36:43;98533.28;;;9.05;96.21
2761;BME280;15420;48.636;9.798;2023-02-12T14:55:03;98519.78;;;9.09;95.83
2761;BME280;15420;48.636;9.798;2023-02-12T15:02:46;98527.06;;;9.02;96.45
2761;BME280;15420;48.636;9.798;2023-02-12T15:11:33;98521.69;;;8.97;96.25
2761;BME280;15420;48.636;9.798;2023-02-12T15:19:39;98516.84;;;8.87;96.71
2761;BME280;15420;48.636;9.798;2023-02-12T15:22:35;98513.28;;;8.85;96.09
2761;BME280;15420;48.636;9.798;2023-02-12T15:30:36;98511.97;;;8.77;97.77
2761;BME280;15420;48.636;9.798;2023-02-12T15:33:04;98504.97;;;8.74;97.13
2761;BME280;15420;48.636;9.798;2023-02-12T15:35:36;98506.66;;;8.74;96.87
2761;BME280;15420;48.636;9.798;2023-02-12T15:38:07;98500.47;;;8.70;97.46
2761;BME280;15420;48.636;9.798;2023-02-12T15:40:33;98511.47;;;8.68;98.19
2761;BME280;15420;48.636;9.798;2023-02-12T15:43:04;98508.91;;;8.68;97.84
2761;BME280;15420;48.636;9.798;2023-02-12T15:45:36;98500.22;;;8.66;97.43
2761;BME280;15420;48.636;9.798;2023-02-12T15:48:12;98502.69;;;8.64;97.70
2761;BME280;15420;48.636;9.798;2023-02-12T15:50:54;98501.16;;;8.82;96.79
2761;BME280;15420;48.636;9.798;2023-02-12T15:53:28;98500.13;;;8.64;97.41
2761;BME280;15420;48.636;9.798;2023-02-12T15:55:58;98494.72;;;8.60;97.76
2761;BME280;15420;48.636;9.798;2023-02-12T15:58:39;98499.63;;;8.55;97.01
2761;BME280;15420;48.636;9.798;2023-02-12T16:01:12;98509.53;;;8.49;97.38
2761;BME280;15420;48.636;9.798;2023-02-12T16:03:41;98502.47;;;8.45;98.13
2761;BME280;15420;48.636;9.798;2023-02-12T16:06:10;98492.81;;;8.41;97.69
2761;BME280;15420;48.636;9.798;2023-02-12T16:08:47;98500.16;;;8.35;96.75
2761;BME280;15420;48.636;9.798;2023-02-12T16:11:18;98499.81;;;8.29;97.62
2761;BME280;15420;48.636;9.798;2023-02-12T16:13:51;98486.63;;;8.23;97.78
2761;BME280;15420;48.636;9.798;2023-02-12T16:16:28;98494.94;;;8.18;98.48
2761;BME280;15420;48.636;9.798;2023-02-12T16:19:17;98486.97;;;8.14;97.61
2761;BME280;15420;48.636;9.798;2023-02-12T16:22:29;98486.53;;;8.06;98.89
2761;BME280;15420;48.636;9.798;2023-02-12T16:24:43;98490.50;;;8.01;98.34
2761;BME280;15420;48.636;9.798;2023-02-12T16:27:22;98487.66;;;7.97;99.95
2761;BME280;15420;48.636;9.798;2023-02-12T16:29:58;98491.75;;;7.93;100.00
2761;BME280;15420;48.636;9.798;2023-02-12T16:32:39;98485.53;;;7.90;100.00
2761;BME280;15420;48.636;9.798;2023-02-12T16:37:48;98497.50;;;7.89;99.85
2761;BME280;15420;48.636;9.798;2023-02-12T16:48:12;98505.16;;;7.74;100.00
2761;BME280;15420;48.636;9.798;2023-02-12T16:51:25;98507.34;;;7.68;100.00
2761;BME280;15420;48.636;9.798;2023-02-12T16:53:52;98508.94;;;7.66;100.00
2761;BME280;15420;48.636;9.798;2023-02-12T16:56:27;98506.28;;;7.65;100.00
2761;BME280;15420;48.636;9.798;2023-02-12T16:58:59;98512.03;;;7.61;100.00
2761;BME280;15420;48.636;9.798;2023-02-12T17:01:30;98512.03;;;7.61;100.00
2761;BME280;15420;48.636;9.798;2023-02-12T17:04:00;98516.19;;;7.59;100.00
2761;BME280;15420;48.636;9.798;2023-02-12T17:06:30;98517.41;;;7.50;100.00
2761;BME280;15420;48.636;9.798;2023-02-12T17:08:59;98515.72;;;7.51;100.00
2761;BME280;15420;48.636;9.798;2023-02-12T17:11:26;98509.41;;;7.46;100.00
2761;BME280;15420;48.636;9.798;2023-02-12T17:13:53;98523.03;;;7.45;100.00
2761;BME280;15420;48.636;9.798;2023-02-12T17:16:22;98518.59;;;7.42;100.00
2761;BME280;15420;48.636;9.798;2023-02-12T17:18:51;98516.84;;;7.41;100.00
2761;BME280;15420;48.636;9.798;2023-02-12T17:21:24;98523.63;;;7.41;100.00
2761;BME280;15420;48.636;9.798;2023-02-12T17:23:50;98518.22;;;7.36;100.00